createdAt,value
2022-11-30T00:01:25.073Z,39.00
2022-11-30T00:03:55.024Z,40.30
2022-11-30T00:06:24.330Z,42.20
2022-11-30T00:08:53.612Z,42.20
2022-11-30T00:11:23.450Z,41.00
2022-11-30T00:13:51.830Z,32.80
2022-11-30T00:16:19.935Z,47.80
2022-11-30T00:18:48.113Z,51.30
2022-11-30T00:21:17.807Z,48.20
2022-11-30T00:23:47.889Z,52.20
2022-11-30T00:26:18.721Z,47.50
2022-11-30T00:28:47.845Z,44.30
2022-11-30T00:31:18.130Z,45.40
2022-11-30T00:33:46.900Z,41.40
2022-11-30T00:36:20.309Z,34.10
2022-11-30T00:38:50.092Z,38.90
2022-11-30T00:41:19.692Z,55.40
2022-11-30T00:43:48.039Z,53.50
2022-11-30T00:46:16.178Z,48.40
2022-11-30T00:48:44.490Z,54.70
2022-11-30T00:51:13.308Z,41.20
2022-11-30T00:53:42.124Z,37.50
2022-11-30T00:56:11.110Z,41.30
2022-11-30T00:58:39.273Z,54.20
2022-11-30T01:01:08.450Z,33.60
2022-11-30T01:03:37.033Z,82.20
2022-11-30T01:06:08.309Z,59.10
2022-11-30T01:08:37.412Z,63.60
2022-11-30T01:11:17.618Z,45.60
2022-11-30T01:13:45.687Z,36.60
2022-11-30T01:16:17.755Z,42.40
2022-11-30T01:18:46.895Z,32.80
2022-11-30T01:21:17.570Z,41.30
2022-11-30T01:23:46.416Z,44.10
2022-11-30T01:26:14.819Z,36.10
2022-11-30T01:28:44.472Z,36.10
2022-11-30T01:31:14.943Z,40.10
2022-11-30T01:33:43.623Z,39.30
2022-11-30T01:36:14.552Z,33.20
2022-11-30T01:38:55.781Z,39.70
2022-11-30T01:41:25.820Z,33.80
2022-11-30T01:43:56.873Z,38.70
2022-11-30T01:46:44.190Z,49.30
2022-11-30T01:49:32.007Z,45.50
2022-11-30T01:52:07.697Z,42.50
2022-11-30T01:55:14.660Z,35.90
2022-11-30T01:57:48.497Z,48.30
2022-11-30T02:00:17.221Z,50.40
2022-11-30T02:03:11.442Z,44.00
2022-11-30T02:05:41.597Z,38.50
2022-11-30T02:08:11.243Z,27.80
2022-11-30T02:10:43.638Z,41.60
2022-11-30T02:13:17.576Z,34.60
2022-11-30T02:16:27.429Z,33.90
2022-11-30T02:19:24.754Z,46.20
2022-11-30T02:22:20.786Z,53.70
2022-11-30T02:25:26.383Z,46.50
2022-11-30T02:28:18.991Z,44.20
2022-11-30T02:30:52.391Z,44.50
2022-11-30T02:33:25.986Z,73.70
2022-11-30T02:35:55.986Z,50.30
2022-11-30T02:38:26.986Z,33.60
2022-11-30T02:40:55.441Z,26.80
2022-11-30T02:43:25.874Z,35.50
2022-11-30T02:46:28.030Z,39.20
2022-11-30T02:51:38.265Z,26.00
2022-11-30T02:54:06.377Z,29.80
2022-11-30T02:56:34.662Z,26.40
2022-11-30T02:59:02.827Z,29.10
2022-11-30T03:01:30.961Z,26.30
2022-11-30T03:03:58.976Z,23.80
2022-11-30T03:06:26.953Z,26.60
2022-11-30T03:08:54.981Z,28.10
2022-11-30T03:11:23.050Z,22.90
2022-11-30T03:13:51.157Z,25.20
2022-11-30T03:16:19.241Z,28.80
2022-11-30T03:18:47.314Z,29.40
2022-11-30T03:21:15.355Z,29.00
2022-11-30T03:23:43.431Z,24.20
2022-11-30T03:26:11.590Z,24.80
2022-11-30T03:28:39.672Z,23.10
2022-11-30T03:31:12.774Z,26.40
2022-11-30T03:33:42.348Z,27.50
2022-11-30T03:36:12.069Z,25.20
2022-11-30T03:38:40.625Z,27.60
2022-11-30T03:41:12.382Z,25.90
2022-11-30T03:46:09.539Z,21.60
2022-11-30T03:48:38.465Z,26.60
2022-11-30T03:51:07.470Z,23.90
2022-11-30T03:53:35.484Z,20.70
2022-11-30T03:56:06.358Z,23.20
2022-11-30T03:58:35.261Z,22.10
2022-11-30T04:01:24.231Z,19.70
2022-11-30T04:03:53.003Z,23.20
2022-11-30T04:06:21.903Z,25.40
2022-11-30T04:08:50.358Z,27.40
2022-11-30T04:11:18.566Z,19.60
2022-11-30T04:13:46.644Z,25.50
2022-11-30T04:16:21.107Z,22.50
2022-11-30T04:18:49.155Z,23.90
2022-11-30T04:21:17.183Z,22.80
2022-11-30T04:23:45.469Z,19.00
2022-11-30T04:26:15.184Z,19.90
2022-11-30T04:28:43.704Z,20.50
2022-11-30T04:31:12.661Z,29.50
2022-11-30T04:33:40.716Z,20.70
2022-11-30T04:36:17.799Z,18.20
2022-11-30T04:38:46.564Z,17.50
2022-11-30T04:41:14.957Z,20.00
2022-11-30T04:43:42.949Z,16.80
2022-11-30T04:46:11.140Z,21.20
2022-11-30T04:48:39.265Z,17.50
2022-11-30T04:51:08.995Z,18.30
2022-11-30T04:53:38.291Z,20.70
2022-11-30T04:56:08.136Z,25.70
2022-11-30T04:58:36.702Z,26.30
2022-11-30T05:01:05.270Z,23.90
2022-11-30T05:03:33.456Z,22.80
2022-11-30T05:06:01.950Z,28.40
2022-11-30T05:08:30.524Z,19.90
2022-11-30T05:10:58.854Z,21.40
2022-11-30T05:13:27.271Z,20.70
2022-11-30T05:15:55.345Z,21.80
2022-11-30T05:18:23.718Z,16.90
2022-11-30T05:20:53.585Z,25.10
2022-11-30T05:23:22.203Z,22.60
2022-11-30T05:25:50.350Z,26.20
2022-11-30T05:28:18.509Z,18.60
2022-11-30T05:30:46.811Z,26.40
2022-11-30T05:33:15.097Z,20.10
2022-11-30T05:35:43.692Z,23.00
2022-11-30T05:38:11.788Z,37.70
2022-11-30T05:40:39.819Z,41.50
2022-11-30T05:43:07.834Z,28.10
2022-11-30T05:45:35.930Z,23.70
2022-11-30T05:48:04.110Z,23.60
2022-11-30T05:50:32.200Z,19.50
2022-11-30T05:53:01.118Z,25.20
2022-11-30T05:55:29.809Z,28.30
2022-11-30T05:57:58.107Z,37.90
2022-11-30T06:00:26.669Z,35.10
2022-11-30T06:02:58.791Z,30.80
2022-11-30T06:05:28.113Z,24.70
2022-11-30T06:07:59.736Z,21.30
2022-11-30T06:10:27.957Z,20.60
2022-11-30T06:12:56.022Z,22.90
2022-11-30T06:15:24.065Z,23.00
2022-11-30T06:17:52.176Z,26.80
2022-11-30T06:20:20.189Z,22.60
2022-11-30T06:22:48.231Z,27.50
2022-11-30T06:25:16.306Z,27.60
2022-11-30T06:27:44.337Z,22.60
2022-11-30T06:30:13.061Z,17.60
2022-11-30T06:32:45.440Z,14.60
2022-11-30T06:35:14.275Z,28.80
2022-11-30T06:37:43.296Z,21.30
2022-11-30T06:40:13.140Z,20.50
2022-11-30T06:42:41.128Z,21.30
2022-11-30T06:45:09.823Z,16.70
2022-11-30T06:47:37.873Z,26.60
2022-11-30T06:50:08.330Z,25.30
2022-11-30T06:52:36.367Z,35.00
2022-11-30T06:55:04.697Z,32.30
2022-11-30T06:57:32.752Z,24.60
2022-11-30T07:00:00.786Z,24.00
2022-11-30T07:02:28.871Z,22.10
2022-11-30T07:04:57.354Z,34.80
2022-11-30T07:07:25.571Z,20.90
2022-11-30T07:09:53.694Z,22.50
2022-11-30T07:12:21.719Z,158.30
2022-11-30T07:14:53.042Z,217.70
2022-11-30T07:17:21.107Z,368.10
2022-11-30T07:19:49.280Z,220.00
2022-11-30T07:22:17.271Z,271.80
2022-11-30T07:25:03.885Z,184.30
2022-11-30T07:27:31.935Z,414.20
2022-11-30T07:30:00.018Z,121.20
2022-11-30T07:32:28.097Z,173.50
2022-11-30T07:34:56.151Z,67.40
2022-11-30T07:37:24.523Z,29.80
2022-11-30T07:39:52.624Z,36.80
2022-11-30T07:42:20.759Z,31.70
2022-11-30T07:44:55.264Z,32.50
2022-11-30T07:47:26.723Z,38.50
2022-11-30T07:49:54.819Z,45.90
2022-11-30T07:52:23.179Z,28.20
2022-11-30T07:54:51.227Z,27.90
2022-11-30T07:57:19.358Z,30.10
2022-11-30T07:59:47.627Z,31.30
2022-11-30T08:02:16.065Z,33.40
2022-11-30T08:04:44.467Z,29.30
2022-11-30T08:07:16.225Z,39.60
2022-11-30T08:09:45.321Z,36.70
2022-11-30T08:12:13.398Z,20.60
2022-11-30T08:15:17.521Z,31.40
2022-11-30T08:17:29.495Z,27.90
2022-11-30T08:19:57.515Z,30.60
2022-11-30T08:22:25.527Z,32.50
2022-11-30T08:24:53.610Z,31.00
2022-11-30T08:27:21.770Z,27.10
2022-11-30T08:29:49.835Z,23.90
2022-11-30T08:32:18.459Z,43.70
2022-11-30T08:34:47.222Z,31.90
2022-11-30T08:37:15.432Z,29.90
2022-11-30T08:39:43.413Z,27.60
2022-11-30T08:42:12.456Z,26.50
2022-11-30T08:44:40.525Z,28.90
2022-11-30T08:47:08.660Z,32.00
2022-11-30T08:49:36.774Z,22.10
2022-11-30T08:52:20.378Z,28.70
2022-11-30T08:54:49.047Z,31.90
2022-11-30T08:57:20.083Z,28.50
2022-11-30T08:59:48.674Z,39.90
2022-11-30T09:02:19.645Z,46.90
2022-11-30T09:04:49.600Z,53.40
2022-11-30T09:07:18.247Z,79.60
2022-11-30T09:09:46.621Z,38.40
2022-11-30T09:12:14.989Z,40.90
2022-11-30T09:14:43.022Z,25.60
2022-11-30T09:17:11.162Z,27.60
2022-11-30T09:19:39.763Z,30.30
2022-11-30T09:22:07.810Z,29.60
2022-11-30T09:24:36.297Z,29.50
2022-11-30T09:27:04.345Z,31.50
2022-11-30T09:29:32.616Z,36.70
2022-11-30T09:32:00.628Z,40.20
2022-11-30T09:34:28.777Z,40.80
2022-11-30T09:36:56.921Z,37.40
2022-11-30T09:39:25.262Z,67.70
2022-11-30T09:42:50.575Z,32.20
2022-11-30T09:45:30.649Z,30.50
2022-11-30T09:47:59.077Z,41.50
2022-11-30T09:50:32.286Z,41.80
2022-11-30T09:53:10.821Z,48.40
2022-11-30T09:55:43.838Z,46.80
2022-11-30T09:58:50.977Z,40.10
2022-11-30T10:01:20.962Z,43.90
2022-11-30T10:03:49.789Z,44.40
2022-11-30T10:06:25.683Z,49.10
2022-11-30T10:09:02.711Z,43.60
2022-11-30T10:11:30.674Z,40.90
2022-11-30T10:14:26.242Z,40.10
2022-11-30T10:17:18.469Z,42.70
2022-11-30T10:22:35.975Z,35.30
2022-11-30T10:25:30.263Z,35.60
2022-11-30T10:28:30.880Z,40.10
2022-11-30T10:30:55.506Z,38.10
2022-11-30T10:33:37.036Z,34.10
2022-11-30T10:36:13.300Z,32.70
2022-11-30T10:41:18.194Z,31.10
2022-11-30T10:43:49.383Z,36.50
2022-11-30T10:46:31.412Z,45.20
2022-11-30T10:49:17.090Z,39.00
2022-11-30T10:51:56.844Z,41.50
2022-11-30T10:54:24.925Z,37.90
2022-11-30T10:56:53.199Z,47.60
2022-11-30T10:59:30.160Z,33.10
2022-11-30T11:01:58.298Z,41.80
2022-11-30T11:04:28.054Z,53.60
2022-11-30T11:07:14.903Z,41.80
2022-11-30T11:09:50.564Z,41.80
2022-11-30T11:12:25.140Z,98.50
2022-11-30T11:15:15.283Z,127.70
2022-11-30T11:17:43.358Z,41.70
2022-11-30T11:20:31.575Z,39.50
2022-11-30T11:23:00.099Z,43.20
2022-11-30T11:25:32.956Z,43.90
2022-11-30T11:28:08.938Z,52.90
2022-11-30T11:30:38.065Z,51.60
2022-11-30T11:33:14.776Z,36.10
2022-11-30T11:35:46.609Z,59.00
2022-11-30T11:40:56.351Z,49.60
2022-11-30T11:43:27.525Z,41.40
2022-11-30T11:46:01.888Z,34.50
2022-11-30T11:48:38.668Z,36.30
2022-11-30T11:51:09.408Z,28.00
2022-11-30T11:53:48.708Z,46.00
2022-11-30T11:56:26.713Z,40.80
2022-11-30T11:59:03.250Z,39.80
2022-11-30T12:01:40.644Z,53.20
2022-11-30T12:04:35.618Z,63.10
2022-11-30T12:07:17.947Z,43.30
2022-11-30T12:10:50.749Z,288.80
2022-11-30T12:13:24.726Z,611.30
2022-11-30T12:16:05.139Z,526.40
2022-11-30T12:18:58.140Z,81.20
2022-11-30T12:21:52.247Z,85.60
2022-11-30T12:24:26.061Z,58.50
2022-11-30T12:27:03.561Z,58.00
2022-11-30T12:29:49.882Z,74.20
2022-11-30T12:32:57.495Z,63.20
2022-11-30T12:35:27.208Z,57.40
2022-11-30T12:38:16.181Z,54.00
2022-11-30T12:41:07.816Z,42.80
2022-11-30T12:43:55.663Z,36.90
2022-11-30T12:46:41.889Z,43.20
2022-11-30T12:52:25.027Z,38.70
2022-11-30T12:54:59.115Z,27.90
2022-11-30T12:57:38.569Z,35.50
2022-11-30T13:00:26.951Z,35.50
2022-11-30T13:02:58.046Z,38.10
2022-11-30T13:05:40.826Z,66.90
2022-11-30T13:08:20.312Z,48.40
2022-11-30T13:11:03.694Z,65.40
2022-11-30T13:13:34.257Z,74.00
2022-11-30T13:16:06.019Z,68.20
2022-11-30T13:21:23.462Z,46.70
2022-11-30T13:24:42.789Z,52.90
2022-11-30T13:27:20.246Z,55.40
2022-11-30T13:29:56.207Z,46.70
2022-11-30T13:32:56.749Z,79.00
2022-11-30T13:35:28.899Z,69.80
2022-11-30T13:38:35.643Z,56.60
2022-11-30T13:41:05.899Z,59.20
2022-11-30T13:43:52.235Z,52.20
2022-11-30T13:46:24.173Z,56.80
2022-11-30T13:49:35.931Z,49.20
2022-11-30T13:52:23.311Z,43.20
2022-11-30T13:54:58.398Z,44.80
2022-11-30T13:57:29.209Z,39.40
2022-11-30T13:59:59.875Z,79.10
2022-11-30T14:02:34.282Z,116.30
2022-11-30T14:05:20.301Z,130.70
2022-11-30T14:08:00.762Z,120.90
2022-11-30T14:10:38.037Z,105.80
2022-11-30T14:13:30.017Z,128.30
2022-11-30T14:16:00.811Z,74.60
2022-11-30T14:18:42.826Z,68.50
2022-11-30T14:21:22.293Z,77.10
2022-11-30T14:24:06.859Z,89.40
2022-11-30T14:26:43.658Z,131.30
2022-11-30T14:29:20.078Z,128.60
2022-11-30T14:31:48.228Z,67.90
2022-11-30T14:34:21.535Z,100.30
2022-11-30T14:36:58.370Z,129.00
2022-11-30T14:39:27.994Z,129.90
2022-11-30T14:41:56.209Z,76.90
2022-11-30T14:44:24.269Z,99.40
2022-11-30T14:46:52.511Z,113.80
2022-11-30T14:49:23.638Z,120.60
2022-11-30T14:52:02.665Z,136.70
2022-11-30T14:55:10.883Z,165.00
2022-11-30T14:58:20.130Z,124.90
2022-11-30T15:00:49.449Z,101.20
2022-11-30T15:03:23.494Z,81.90
2022-11-30T15:05:54.892Z,81.10
2022-11-30T15:08:24.492Z,66.00
2022-11-30T15:10:56.641Z,88.90
2022-11-30T15:13:24.790Z,79.40
2022-11-30T15:15:55.325Z,143.90
2022-11-30T15:18:25.232Z,104.10
2022-11-30T15:21:02.351Z,122.80
2022-11-30T15:23:30.476Z,122.50
2022-11-30T15:26:14.482Z,163.90
2022-11-30T15:28:47.426Z,449.60
2022-11-30T15:31:17.217Z,715.40
2022-11-30T15:33:47.802Z,311.90
2022-11-30T15:36:31.911Z,425.40
2022-11-30T15:39:07.222Z,251.30
2022-11-30T15:41:36.356Z,154.20
2022-11-30T15:44:04.579Z,190.70
2022-11-30T15:46:44.515Z,260.40
2022-11-30T15:52:04.358Z,304.80
2022-11-30T15:54:55.446Z,286.80
2022-11-30T15:57:25.431Z,211.30
2022-11-30T16:00:09.146Z,130.60
2022-11-30T16:02:38.064Z,129.90
2022-11-30T16:05:14.684Z,137.00
2022-11-30T16:08:00.135Z,123.20
2022-11-30T16:10:38.898Z,124.00
2022-11-30T16:13:06.959Z,126.20
2022-11-30T16:15:37.046Z,131.30
2022-11-30T16:18:22.275Z,148.50
2022-11-30T16:20:53.938Z,149.60
2022-11-30T16:23:22.411Z,150.60
2022-11-30T16:25:51.020Z,124.60
2022-11-30T16:28:21.031Z,119.00
2022-11-30T16:30:50.190Z,131.10
2022-11-30T16:33:23.210Z,97.40
2022-11-30T16:36:01.554Z,77.60
2022-11-30T16:38:29.702Z,79.40
2022-11-30T16:41:14.061Z,80.20
2022-11-30T16:43:43.309Z,71.10
2022-11-30T16:46:19.631Z,76.60
2022-11-30T16:48:49.010Z,69.50
2022-11-30T16:51:27.574Z,60.90
2022-11-30T16:53:56.114Z,60.80
2022-11-30T16:56:24.913Z,49.10
2022-11-30T16:58:53.370Z,60.90
2022-11-30T17:01:35.506Z,51.50
2022-11-30T17:04:26.163Z,61.60
2022-11-30T17:07:00.441Z,46.40
2022-11-30T17:09:30.685Z,57.40
2022-11-30T17:11:58.754Z,80.00
2022-11-30T17:14:26.759Z,51.60
2022-11-30T17:16:54.948Z,68.90
2022-11-30T17:19:23.046Z,57.80
2022-11-30T17:21:51.110Z,60.40
2022-11-30T17:24:19.267Z,80.60
2022-11-30T17:26:47.396Z,56.10
2022-11-30T17:29:15.520Z,64.90
2022-11-30T17:31:43.546Z,54.20
2022-11-30T17:34:11.572Z,48.50
2022-11-30T17:36:39.653Z,61.20
2022-11-30T17:39:09.124Z,59.50
2022-11-30T17:41:37.163Z,75.90
2022-11-30T17:44:05.205Z,66.20
2022-11-30T17:46:33.280Z,80.20
2022-11-30T17:49:01.299Z,77.90
2022-11-30T17:51:29.559Z,131.50
2022-11-30T17:53:58.048Z,136.50
2022-11-30T17:56:28.689Z,149.20
2022-11-30T17:58:56.739Z,159.70
2022-11-30T18:01:26.854Z,130.60
2022-11-30T18:03:56.518Z,127.60
2022-11-30T18:06:24.955Z,122.30
2022-11-30T18:08:55.807Z,182.60
2022-11-30T18:11:26.224Z,164.80
2022-11-30T18:13:56.352Z,140.00
2022-11-30T18:16:27.096Z,74.20
2022-11-30T18:18:57.704Z,63.70
2022-11-30T18:21:29.040Z,46.80
2022-11-30T18:23:58.389Z,61.90
2022-11-30T18:26:27.520Z,52.50
2022-11-30T18:28:57.943Z,60.60
2022-11-30T18:31:28.086Z,58.50
2022-11-30T18:34:05.301Z,54.60
2022-11-30T18:36:34.588Z,66.50
2022-11-30T18:39:03.130Z,61.80
2022-11-30T18:41:31.222Z,71.60
2022-11-30T18:43:59.308Z,72.20
2022-11-30T18:46:27.724Z,71.20
2022-11-30T18:48:56.571Z,78.90
2022-11-30T18:51:27.762Z,67.00
2022-11-30T18:53:58.646Z,69.50
2022-11-30T18:56:30.080Z,56.90
2022-11-30T18:59:00.951Z,68.20
2022-11-30T19:01:30.686Z,97.50
2022-11-30T19:04:02.591Z,128.90
2022-11-30T19:06:33.528Z,128.50
2022-11-30T19:09:05.492Z,90.00
2022-11-30T19:14:04.105Z,96.20
2022-11-30T19:16:37.452Z,93.30
2022-11-30T19:19:08.335Z,81.00
2022-11-30T19:21:37.311Z,86.90
2022-11-30T19:24:07.001Z,91.90
2022-11-30T19:26:36.700Z,91.90
2022-11-30T19:29:05.732Z,85.80
2022-11-30T19:31:34.929Z,86.70
2022-11-30T19:34:09.093Z,80.80
2022-11-30T19:36:41.525Z,74.90
2022-11-30T19:39:11.283Z,76.80
2022-11-30T19:41:40.335Z,80.10
2022-11-30T19:44:14.541Z,124.90
2022-11-30T19:49:12.556Z,134.10
2022-11-30T19:51:42.096Z,132.50
2022-11-30T19:54:11.984Z,120.00
2022-11-30T19:56:43.164Z,90.50
2022-11-30T19:59:11.855Z,84.70
2022-11-30T20:01:40.617Z,78.60
2022-11-30T20:04:09.403Z,89.30
2022-11-30T20:06:39.051Z,81.50
2022-11-30T20:09:09.330Z,70.80
2022-11-30T20:11:37.844Z,78.30
2022-11-30T20:14:06.200Z,66.20
2022-11-30T20:16:34.363Z,52.90
2022-11-30T20:19:03.294Z,61.60
2022-11-30T20:21:34.723Z,46.30
2022-11-30T20:24:07.193Z,42.10
2022-11-30T20:26:38.384Z,43.50
2022-11-30T20:29:08.519Z,45.80
2022-11-30T20:31:37.716Z,32.50
2022-11-30T20:34:08.344Z,38.80
2022-11-30T20:36:37.239Z,35.50
2022-11-30T20:39:06.204Z,37.40
2022-11-30T20:41:34.516Z,37.30
2022-11-30T20:44:03.094Z,35.20
2022-11-30T20:46:33.762Z,40.30
2022-11-30T20:49:03.563Z,31.10
2022-11-30T20:51:36.609Z,31.80
2022-11-30T20:54:07.295Z,30.80
2022-11-30T20:56:37.516Z,29.80
2022-11-30T20:59:09.397Z,32.20
2022-11-30T21:01:37.544Z,29.80
2022-11-30T21:04:05.645Z,27.40
2022-11-30T21:06:33.775Z,30.50
2022-11-30T21:09:02.023Z,29.00
2022-11-30T21:11:31.323Z,33.30
2022-11-30T21:13:59.683Z,27.80
2022-11-30T21:16:29.764Z,29.80
2022-11-30T21:19:00.001Z,28.40
2022-11-30T21:21:33.465Z,35.10
2022-11-30T21:24:04.030Z,50.20
2022-11-30T21:26:34.699Z,53.90
2022-11-30T21:29:07.068Z,61.50
2022-11-30T21:31:35.974Z,44.60
2022-11-30T21:34:04.103Z,48.90
2022-11-30T21:36:32.554Z,40.80
2022-11-30T21:39:06.036Z,42.30
2022-11-30T21:41:37.733Z,39.10
2022-11-30T21:44:08.317Z,30.70
2022-11-30T21:46:36.446Z,30.20
2022-11-30T21:49:04.900Z,28.40
2022-11-30T21:51:33.618Z,24.30
2022-11-30T21:54:05.307Z,25.40
2022-11-30T21:56:36.130Z,27.60
2022-11-30T21:59:07.610Z,25.10
2022-11-30T22:01:38.701Z,21.90
2022-11-30T22:04:09.450Z,35.80
2022-11-30T22:06:39.493Z,27.00
2022-11-30T22:09:12.699Z,24.10
2022-11-30T22:11:42.981Z,22.10
2022-11-30T22:14:14.098Z,28.00
2022-11-30T22:16:42.626Z,22.30
2022-11-30T22:19:11.264Z,27.40
2022-11-30T22:21:39.771Z,24.30
2022-11-30T22:24:11.116Z,37.40
2022-11-30T22:26:44.295Z,32.30
2022-11-30T22:29:15.650Z,30.20
2022-11-30T22:31:45.767Z,41.30
2022-11-30T22:34:14.081Z,47.50
2022-11-30T22:36:43.620Z,33.30
2022-11-30T22:39:14.683Z,38.30
2022-11-30T22:41:45.278Z,36.80
2022-11-30T22:44:15.521Z,36.70
2022-11-30T22:46:44.734Z,29.50
2022-11-30T22:49:20.297Z,27.90
2022-11-30T22:51:49.888Z,30.30
2022-11-30T22:54:18.560Z,32.70
2022-11-30T22:56:47.001Z,26.20
2022-11-30T22:59:15.975Z,33.40
2022-11-30T23:01:47.181Z,30.10
2022-11-30T23:04:18.482Z,21.90
2022-11-30T23:06:48.434Z,31.10
2022-11-30T23:09:19.616Z,32.20
2022-11-30T23:11:48.615Z,35.50
2022-11-30T23:14:17.462Z,26.10
2022-11-30T23:16:46.172Z,30.20
2022-11-30T23:19:15.419Z,33.00
2022-11-30T23:21:47.181Z,26.70
2022-11-30T23:24:20.430Z,26.70
2022-11-30T23:26:49.314Z,31.90
2022-11-30T23:29:18.235Z,28.40
2022-11-30T23:31:47.645Z,26.90
2022-11-30T23:34:19.871Z,26.00
2022-11-30T23:36:49.099Z,22.70
2022-11-30T23:39:18.702Z,24.20
2022-11-30T23:41:46.868Z,25.20
2022-11-30T23:44:15.149Z,24.00
2022-11-30T23:46:43.400Z,22.80
2022-11-30T23:49:14.145Z,28.80
2022-11-30T23:51:43.127Z,29.90
2022-11-30T23:54:11.164Z,28.80
2022-11-30T23:56:39.183Z,27.40
2022-11-30T23:59:07.214Z,27.80
